sensor_id;sensor_type;location;lat;lon;timestamp;temperature;humidity
20081;DHT22;10200;49.232;9.222;2023-09-19T00:00:21;17.90;99.90
20081;DHT22;10200;49.232;9.222;2023-09-19T00:02:54;17.90;99.90
20081;DHT22;10200;49.232;9.222;2023-09-19T00:05:20;17.90;99.90
20081;DHT22;10200;49.232;9.222;2023-09-19T00:07:50;17.90;99.90
20081;DHT22;10200;49.232;9.222;2023-09-19T00:10:16;18.00;99.90
20081;DHT22;10200;49.232;9.222;2023-09-19T00:12:43;18.00;99.90
20081;DHT22;10200;49.232;9.222;2023-09-19T00:15:09;18.00;99.90
20081;DHT22;10200;49.232;9.222;2023-09-19T00:17:35;18.00;99.90
20081;DHT22;10200;49.232;9.222;2023-09-19T00:20:03;18.10;99.90
20081;DHT22;10200;49.232;9.222;2023-09-19T00:22:33;18.10;99.90
20081;DHT22;10200;49.232;9.222;2023-09-19T00:24:58;18.00;99.90
20081;DHT22;10200;49.232;9.222;2023-09-19T00:27:24;18.00;99.90
20081;DHT22;10200;49.232;9.222;2023-09-19T00:29:50;18.00;99.90
20081;DHT22;10200;49.232;9.222;2023-09-19T00:32:15;18.00;99.90
20081;DHT22;10200;49.232;9.222;2023-09-19T00:34:41;18.00;99.90
20081;DHT22;10200;49.232;9.222;2023-09-19T00:37:08;18.00;99.90
20081;DHT22;10200;49.232;9.222;2023-09-19T00:39:33;18.00;99.90
20081;DHT22;10200;49.232;9.222;2023-09-19T00:41:59;18.00;99.90
20081;DHT22;10200;49.232;9.222;2023-09-19T00:44:30;17.90;99.90
20081;DHT22;10200;49.232;9.222;2023-09-19T00:46:55;17.90;99.90
20081;DHT22;10200;49.232;9.222;2023-09-19T00:49:21;17.90;99.90
20081;DHT22;10200;49.232;9.222;2023-09-19T00:51:48;17.90;99.90
20081;DHT22;10200;49.232;9.222;2023-09-19T00:54:14;18.00;99.90
20081;DHT22;10200;49.232;9.222;2023-09-19T00:56:44;18.00;99.90
20081;DHT22;10200;49.232;9.222;2023-09-19T00:59:10;17.90;99.90
20081;DHT22;10200;49.232;9.222;2023-09-19T01:01:37;17.90;99.90
20081;DHT22;10200;49.232;9.222;2023-09-19T01:04:05;17.90;99.90
20081;DHT22;10200;49.232;9.222;2023-09-19T01:06:31;17.90;99.90
20081;DHT22;10200;49.232;9.222;2023-09-19T01:08:57;17.90;99.90
20081;DHT22;10200;49.232;9.222;2023-09-19T01:11:38;17.90;99.90
20081;DHT22;10200;49.232;9.222;2023-09-19T01:14:20;18.00;99.90
20081;DHT22;10200;49.232;9.222;2023-09-19T01:17:00;18.00;99.90
20081;DHT22;10200;49.232;9.222;2023-09-19T01:22:53;18.00;99.90
20081;DHT22;10200;49.232;9.222;2023-09-19T01:30:33;18.00;99.90
20081;DHT22;10200;49.232;9.222;2023-09-19T01:33:01;18.10;99.90
20081;DHT22;10200;49.232;9.222;2023-09-19T01:35:29;18.00;99.90
20081;DHT22;10200;49.232;9.222;2023-09-19T01:37:55;18.00;99.90
20081;DHT22;10200;49.232;9.222;2023-09-19T01:40:21;18.00;99.90
20081;DHT22;10200;49.232;9.222;2023-09-19T01:43:08;18.10;99.90
20081;DHT22;10200;49.232;9.222;2023-09-19T01:51:16;18.10;99.90
20081;DHT22;10200;49.232;9.222;2023-09-19T01:56:49;18.00;99.90
20081;DHT22;10200;49.232;9.222;2023-09-19T01:59:24;18.10;99.90
20081;DHT22;10200;49.232;9.222;2023-09-19T02:01:53;18.00;99.90
20081;DHT22;10200;49.232;9.222;2023-09-19T02:04:20;18.00;99.90
20081;DHT22;10200;49.232;9.222;2023-09-19T02:06:45;18.00;99.90
20081;DHT22;10200;49.232;9.222;2023-09-19T02:09:13;18.00;99.90
20081;DHT22;10200;49.232;9.222;2023-09-19T02:11:40;18.00;99.90
20081;DHT22;10200;49.232;9.222;2023-09-19T02:14:06;18.00;99.90
20081;DHT22;10200;49.232;9.222;2023-09-19T02:16:37;18.00;99.90
20081;DHT22;10200;49.232;9.222;2023-09-19T02:19:02;17.90;99.90
20081;DHT22;10200;49.232;9.222;2023-09-19T02:21:31;17.90;99.90
20081;DHT22;10200;49.232;9.222;2023-09-19T02:23:57;18.00;99.90
20081;DHT22;10200;49.232;9.222;2023-09-19T02:26:24;17.90;99.90
20081;DHT22;10200;49.232;9.222;2023-09-19T02:28:49;18.00;99.90
20081;DHT22;10200;49.232;9.222;2023-09-19T02:31:15;18.00;99.90
20081;DHT22;10200;49.232;9.222;2023-09-19T02:33:42;18.00;99.90
20081;DHT22;10200;49.232;9.222;2023-09-19T02:36:07;18.00;99.90
20081;DHT22;10200;49.232;9.222;2023-09-19T02:38:34;18.00;99.90
20081;DHT22;10200;49.232;9.222;2023-09-19T02:41:00;17.90;99.90
20081;DHT22;10200;49.232;9.222;2023-09-19T02:43:25;18.00;99.90
20081;DHT22;10200;49.232;9.222;2023-09-19T02:45:51;17.90;99.90
20081;DHT22;10200;49.232;9.222;2023-09-19T02:48:20;17.90;99.90
20081;DHT22;10200;49.232;9.222;2023-09-19T02:50:49;17.90;99.90
20081;DHT22;10200;49.232;9.222;2023-09-19T02:53:15;17.90;99.90
20081;DHT22;10200;49.232;9.222;2023-09-19T02:55:41;17.90;99.90
20081;DHT22;10200;49.232;9.222;2023-09-19T02:58:07;17.90;99.90
20081;DHT22;10200;49.232;9.222;2023-09-19T03:00:39;17.90;99.90
20081;DHT22;10200;49.232;9.222;2023-09-19T03:03:07;17.90;99.90
20081;DHT22;10200;49.232;9.222;2023-09-19T03:05:34;18.00;99.90
20081;DHT22;10200;49.232;9.222;2023-09-19T03:08:00;18.00;99.90
20081;DHT22;10200;49.232;9.222;2023-09-19T03:10:29;18.00;99.90
20081;DHT22;10200;49.232;9.222;2023-09-19T03:12:57;18.00;99.90
20081;DHT22;10200;49.232;9.222;2023-09-19T03:15:22;18.00;99.90
20081;DHT22;10200;49.232;9.222;2023-09-19T03:17:50;18.00;99.90
20081;DHT22;10200;49.232;9.222;2023-09-19T03:20:17;18.00;99.90
20081;DHT22;10200;49.232;9.222;2023-09-19T03:22:43;18.10;99.90
20081;DHT22;10200;49.232;9.222;2023-09-19T03:25:09;18.10;99.90
20081;DHT22;10200;49.232;9.222;2023-09-19T03:27:38;18.10;99.90
20081;DHT22;10200;49.232;9.222;2023-09-19T03:30:05;18.10;99.90
20081;DHT22;10200;49.232;9.222;2023-09-19T03:32:37;18.20;99.90
20081;DHT22;10200;49.232;9.222;2023-09-19T03:35:08;18.20;99.90
20081;DHT22;10200;49.232;9.222;2023-09-19T03:37:40;18.20;99.90
20081;DHT22;10200;49.232;9.222;2023-09-19T03:40:07;18.20;99.90
20081;DHT22;10200;49.232;9.222;2023-09-19T03:42:33;18.20;99.90
20081;DHT22;10200;49.232;9.222;2023-09-19T03:45:01;18.20;99.90
20081;DHT22;10200;49.232;9.222;2023-09-19T03:47:31;18.30;99.90
20081;DHT22;10200;49.232;9.222;2023-09-19T03:49:56;18.30;99.90
20081;DHT22;10200;49.232;9.222;2023-09-19T03:52:22;18.30;99.90
20081;DHT22;10200;49.232;9.222;2023-09-19T03:54:47;18.30;99.90
20081;DHT22;10200;49.232;9.222;2023-09-19T03:57:13;18.20;99.90
20081;DHT22;10200;49.232;9.222;2023-09-19T03:59:41;18.30;99.90
20081;DHT22;10200;49.232;9.222;2023-09-19T04:02:08;18.20;99.90
20081;DHT22;10200;49.232;9.222;2023-09-19T04:04:38;18.20;99.90
20081;DHT22;10200;49.232;9.222;2023-09-19T04:07:04;18.20;99.90
20081;DHT22;10200;49.232;9.222;2023-09-19T04:09:29;18.30;99.90
20081;DHT22;10200;49.232;9.222;2023-09-19T04:11:55;18.20;99.90
20081;DHT22;10200;49.232;9.222;2023-09-19T04:14:20;18.20;99.90
20081;DHT22;10200;49.232;9.222;2023-09-19T04:16:46;18.20;99.90
20081;DHT22;10200;49.232;9.222;2023-09-19T04:19:11;18.30;99.90
20081;DHT22;10200;49.232;9.222;2023-09-19T04:21:38;18.20;99.90
20081;DHT22;10200;49.232;9.222;2023-09-19T04:24:03;18.20;99.90
20081;DHT22;10200;49.232;9.222;2023-09-19T04:26:29;18.20;99.90
20081;DHT22;10200;49.232;9.222;2023-09-19T04:28:54;18.20;99.90
20081;DHT22;10200;49.232;9.222;2023-09-19T04:31:21;18.20;99.90
20081;DHT22;10200;49.232;9.222;2023-09-19T04:33:47;18.20;99.90
20081;DHT22;10200;49.232;9.222;2023-09-19T04:36:13;18.20;99.90
20081;DHT22;10200;49.232;9.222;2023-09-19T04:38:39;18.20;99.90
20081;DHT22;10200;49.232;9.222;2023-09-19T04:41:05;18.20;99.90
20081;DHT22;10200;49.232;9.222;2023-09-19T04:43:30;18.20;99.90
20081;DHT22;10200;49.232;9.222;2023-09-19T04:45:56;18.20;99.90
20081;DHT22;10200;49.232;9.222;2023-09-19T04:48:22;18.20;99.90
20081;DHT22;10200;49.232;9.222;2023-09-19T04:50:51;18.20;99.90
20081;DHT22;10200;49.232;9.222;2023-09-19T04:53:19;18.20;99.90
20081;DHT22;10200;49.232;9.222;2023-09-19T04:55:50;18.20;99.90
20081;DHT22;10200;49.232;9.222;2023-09-19T04:58:16;18.20;99.90
20081;DHT22;10200;49.232;9.222;2023-09-19T05:00:43;18.30;99.90
20081;DHT22;10200;49.232;9.222;2023-09-19T05:03:08;18.30;99.90
20081;DHT22;10200;49.232;9.222;2023-09-19T05:05:34;18.20;99.90
20081;DHT22;10200;49.232;9.222;2023-09-19T05:08:00;18.20;99.90
20081;DHT22;10200;49.232;9.222;2023-09-19T05:10:25;18.10;99.90
20081;DHT22;10200;49.232;9.222;2023-09-19T05:12:54;18.10;99.90
20081;DHT22;10200;49.232;9.222;2023-09-19T05:15:20;18.20;99.90
20081;DHT22;10200;49.232;9.222;2023-09-19T05:17:50;18.10;99.90
20081;DHT22;10200;49.232;9.222;2023-09-19T05:20:16;18.10;99.90
20081;DHT22;10200;49.232;9.222;2023-09-19T05:22:43;18.10;99.90
20081;DHT22;10200;49.232;9.222;2023-09-19T05:25:12;18.10;99.90
20081;DHT22;10200;49.232;9.222;2023-09-19T05:27:42;18.20;99.90
20081;DHT22;10200;49.232;9.222;2023-09-19T05:30:08;18.30;99.90
20081;DHT22;10200;49.232;9.222;2023-09-19T05:32:34;18.30;99.90
20081;DHT22;10200;49.232;9.222;2023-09-19T05:35:00;18.30;99.90
20081;DHT22;10200;49.232;9.222;2023-09-19T05:37:25;18.40;99.90
20081;DHT22;10200;49.232;9.222;2023-09-19T05:39:51;18.50;99.90
20081;DHT22;10200;49.232;9.222;2023-09-19T05:42:18;18.60;99.90
20081;DHT22;10200;49.232;9.222;2023-09-19T05:44:44;18.70;99.90
20081;DHT22;10200;49.232;9.222;2023-09-19T05:47:09;18.70;99.90
20081;DHT22;10200;49.232;9.222;2023-09-19T05:49:35;18.70;99.90
20081;DHT22;10200;49.232;9.222;2023-09-19T05:52:07;18.80;99.90
20081;DHT22;10200;49.232;9.222;2023-09-19T05:54:33;18.60;99.90
20081;DHT22;10200;49.232;9.222;2023-09-19T05:57:00;18.60;99.90
20081;DHT22;10200;49.232;9.222;2023-09-19T05:59:25;18.60;99.90
20081;DHT22;10200;49.232;9.222;2023-09-19T06:01:51;18.60;99.90
20081;DHT22;10200;49.232;9.222;2023-09-19T06:04:17;18.50;99.90
20081;DHT22;10200;49.232;9.222;2023-09-19T06:06:44;18.50;99.90
20081;DHT22;10200;49.232;9.222;2023-09-19T06:09:10;18.50;99.90
20081;DHT22;10200;49.232;9.222;2023-09-19T06:11:36;18.60;99.90
20081;DHT22;10200;49.232;9.222;2023-09-19T06:14:02;18.60;99.90
20081;DHT22;10200;49.232;9.222;2023-09-19T06:16:29;18.70;99.90
20081;DHT22;10200;49.232;9.222;2023-09-19T06:18:55;18.80;99.90
20081;DHT22;10200;49.232;9.222;2023-09-19T06:21:27;18.80;99.90
20081;DHT22;10200;49.232;9.222;2023-09-19T06:23:56;18.90;99.90
20081;DHT22;10200;49.232;9.222;2023-09-19T06:26:23;18.90;99.90
20081;DHT22;10200;49.232;9.222;2023-09-19T06:28:48;18.90;99.90
20081;DHT22;10200;49.232;9.222;2023-09-19T06:31:14;18.90;99.90
20081;DHT22;10200;49.232;9.222;2023-09-19T06:33:40;19.20;99.90
20081;DHT22;10200;49.232;9.222;2023-09-19T06:36:06;19.70;99.90
20081;DHT22;10200;49.232;9.222;2023-09-19T06:38:32;20.20;99.90
20081;DHT22;10200;49.232;9.222;2023-09-19T06:41:01;20.30;99.90
20081;DHT22;10200;49.232;9.222;2023-09-19T06:43:31;20.60;99.90
20081;DHT22;10200;49.232;9.222;2023-09-19T06:45:57;20.90;99.90
20081;DHT22;10200;49.232;9.222;2023-09-19T06:48:23;21.20;99.90
20081;DHT22;10200;49.232;9.222;2023-09-19T06:50:55;21.30;99.90
20081;DHT22;10200;49.232;9.222;2023-09-19T06:53:21;21.40;99.90
20081;DHT22;10200;49.232;9.222;2023-09-19T06:55:49;21.40;99.90
20081;DHT22;10200;49.232;9.222;2023-09-19T06:58:15;21.40;99.90
20081;DHT22;10200;49.232;9.222;2023-09-19T07:00:42;21.40;99.90
20081;DHT22;10200;49.232;9.222;2023-09-19T07:03:08;21.30;99.90
20081;DHT22;10200;49.232;9.222;2023-09-19T07:05:37;21.40;99.90
20081;DHT22;10200;49.232;9.222;2023-09-19T07:08:05;21.60;99.90
20081;DHT22;10200;49.232;9.222;2023-09-19T07:10:32;21.90;99.90
20081;DHT22;10200;49.232;9.222;2023-09-19T07:12:59;22.10;99.90
20081;DHT22;10200;49.232;9.222;2023-09-19T07:15:25;22.20;97.30
20081;DHT22;10200;49.232;9.222;2023-09-19T07:17:52;22.10;96.40
20081;DHT22;10200;49.232;9.222;2023-09-19T07:20:19;21.90;95.80
20081;DHT22;10200;49.232;9.222;2023-09-19T07:22:45;21.80;96.00
20081;DHT22;10200;49.232;9.222;2023-09-19T07:25:11;21.70;96.50
20081;DHT22;10200;49.232;9.222;2023-09-19T07:27:40;21.70;97.00
20081;DHT22;10200;49.232;9.222;2023-09-19T07:30:06;21.70;96.70
20081;DHT22;10200;49.232;9.222;2023-09-19T07:32:31;21.70;96.30
20081;DHT22;10200;49.232;9.222;2023-09-19T07:34:57;21.60;95.90
20081;DHT22;10200;49.232;9.222;2023-09-19T07:37:23;21.70;96.90
20081;DHT22;10200;49.232;9.222;2023-09-19T07:39:51;21.90;96.60
20081;DHT22;10200;49.232;9.222;2023-09-19T07:42:16;22.10;96.20
20081;DHT22;10200;49.232;9.222;2023-09-19T07:44:43;22.20;93.40
20081;DHT22;10200;49.232;9.222;2023-09-19T07:47:13;22.40;93.10
20081;DHT22;10200;49.232;9.222;2023-09-19T07:49:39;22.70;92.20
20081;DHT22;10200;49.232;9.222;2023-09-19T07:52:04;23.10;92.20
20081;DHT22;10200;49.232;9.222;2023-09-19T07:54:30;23.80;91.40
20081;DHT22;10200;49.232;9.222;2023-09-19T07:57:01;24.10;88.50
20081;DHT22;10200;49.232;9.222;2023-09-19T07:59:27;24.60;84.40
20081;DHT22;10200;49.232;9.222;2023-09-19T08:01:53;24.90;80.60
20081;DHT22;10200;49.232;9.222;2023-09-19T08:04:19;25.10;78.70
20081;DHT22;10200;49.232;9.222;2023-09-19T08:06:44;25.50;77.20
20081;DHT22;10200;49.232;9.222;2023-09-19T08:09:10;25.80;75.90
20081;DHT22;10200;49.232;9.222;2023-09-19T08:11:37;25.80;71.80
20081;DHT22;10200;49.232;9.222;2023-09-19T08:14:04;25.80;70.50
20081;DHT22;10200;49.232;9.222;2023-09-19T08:16:31;25.70;70.80
20081;DHT22;10200;49.232;9.222;2023-09-19T08:18:56;25.70;68.40
20081;DHT22;10200;49.232;9.222;2023-09-19T08:21:23;25.80;68.80
20081;DHT22;10200;49.232;9.222;2023-09-19T08:23:50;25.90;67.90
20081;DHT22;10200;49.232;9.222;2023-09-19T08:26:15;25.90;66.60
20081;DHT22;10200;49.232;9.222;2023-09-19T08:28:42;26.10;66.90
20081;DHT22;10200;49.232;9.222;2023-09-19T08:31:08;26.30;65.70
20081;DHT22;10200;49.232;9.222;2023-09-19T08:33:35;26.10;64.80
20081;DHT22;10200;49.232;9.222;2023-09-19T08:36:05;26.10;63.70
20081;DHT22;10200;49.232;9.222;2023-09-19T08:38:33;26.00;62.20
20081;DHT22;10200;49.232;9.222;2023-09-19T08:41:06;26.00;63.50
20081;DHT22;10200;49.232;9.222;2023-09-19T08:43:32;26.00;64.00
20081;DHT22;10200;49.232;9.222;2023-09-19T08:46:11;26.00;63.00
20081;DHT22;10200;49.232;9.222;2023-09-19T08:51:43;25.90;64.40
20081;DHT22;10200;49.232;9.222;2023-09-19T08:54:25;26.20;63.60
20081;DHT22;10200;49.232;9.222;2023-09-19T08:56:55;26.20;62.60
20081;DHT22;10200;49.232;9.222;2023-09-19T08:59:22;26.20;62.30
20081;DHT22;10200;49.232;9.222;2023-09-19T09:01:53;26.00;60.60
20081;DHT22;10200;49.232;9.222;2023-09-19T09:04:19;25.70;60.90
20081;DHT22;10200;49.232;9.222;2023-09-19T09:06:46;25.40;61.40
20081;DHT22;10200;49.232;9.222;2023-09-19T09:09:18;24.90;61.70
20081;DHT22;10200;49.232;9.222;2023-09-19T09:11:45;24.30;63.30
20081;DHT22;10200;49.232;9.222;2023-09-19T09:16:39;23.50;65.40
20081;DHT22;10200;49.232;9.222;2023-09-19T09:19:05;23.20;66.70
20081;DHT22;10200;49.232;9.222;2023-09-19T09:21:31;23.00;67.80
20081;DHT22;10200;49.232;9.222;2023-09-19T09:24:30;22.90;68.40
20081;DHT22;10200;49.232;9.222;2023-09-19T09:26:59;22.90;69.20
20081;DHT22;10200;49.232;9.222;2023-09-19T09:29:45;23.00;70.20
20081;DHT22;10200;49.232;9.222;2023-09-19T09:32:30;23.10;68.80
20081;DHT22;10200;49.232;9.222;2023-09-19T09:35:00;23.30;68.80
20081;DHT22;10200;49.232;9.222;2023-09-19T09:37:28;23.30;68.00
20081;DHT22;10200;49.232;9.222;2023-09-19T09:39:56;23.30;67.80
20081;DHT22;10200;49.232;9.222;2023-09-19T09:42:31;23.40;66.00
20081;DHT22;10200;49.232;9.222;2023-09-19T09:45:23;23.30;66.60
20081;DHT22;10200;49.232;9.222;2023-09-19T09:47:58;23.30;66.80
20081;DHT22;10200;49.232;9.222;2023-09-19T09:52:58;23.30;68.80
20081;DHT22;10200;49.232;9.222;2023-09-19T09:55:28;23.40;68.00
20081;DHT22;10200;49.232;9.222;2023-09-19T09:58:16;23.50;67.90
20081;DHT22;10200;49.232;9.222;2023-09-19T10:00:55;23.70;67.10
20081;DHT22;10200;49.232;9.222;2023-09-19T10:03:43;23.80;66.50
20081;DHT22;10200;49.232;9.222;2023-09-19T10:06:14;23.90;65.70
20081;DHT22;10200;49.232;9.222;2023-09-19T10:09:04;23.90;65.90
20081;DHT22;10200;49.232;9.222;2023-09-19T10:11:45;23.90;65.60
20081;DHT22;10200;49.232;9.222;2023-09-19T10:14:13;24.00;65.00
20081;DHT22;10200;49.232;9.222;2023-09-19T10:16:49;24.10;64.60
20081;DHT22;10200;49.232;9.222;2023-09-19T10:19:29;24.00;63.50
20081;DHT22;10200;49.232;9.222;2023-09-19T10:21:56;24.00;63.00
20081;DHT22;10200;49.232;9.222;2023-09-19T10:24:25;24.00;63.60
20081;DHT22;10200;49.232;9.222;2023-09-19T10:26:53;24.00;62.50
20081;DHT22;10200;49.232;9.222;2023-09-19T10:29:21;24.10;63.30
20081;DHT22;10200;49.232;9.222;2023-09-19T10:31:47;24.10;63.00
20081;DHT22;10200;49.232;9.222;2023-09-19T10:34:17;24.20;63.20
20081;DHT22;10200;49.232;9.222;2023-09-19T10:36:46;24.20;63.10
20081;DHT22;10200;49.232;9.222;2023-09-19T10:39:16;24.40;63.70
20081;DHT22;10200;49.232;9.222;2023-09-19T10:41:53;24.50;62.70
20081;DHT22;10200;49.232;9.222;2023-09-19T10:44:25;24.60;63.10
20081;DHT22;10200;49.232;9.222;2023-09-19T10:46:52;24.70;62.30
20081;DHT22;10200;49.232;9.222;2023-09-19T10:49:19;24.70;61.80
20081;DHT22;10200;49.232;9.222;2023-09-19T10:51:47;24.70;61.50
20081;DHT22;10200;49.232;9.222;2023-09-19T10:54:17;24.90;60.80
20081;DHT22;10200;49.232;9.222;2023-09-19T10:56:50;24.70;59.90
20081;DHT22;10200;49.232;9.222;2023-09-19T10:59:18;24.50;59.60
20081;DHT22;10200;49.232;9.222;2023-09-19T11:01:52;24.40;59.30
20081;DHT22;10200;49.232;9.222;2023-09-19T11:04:34;24.10;59.50
20081;DHT22;10200;49.232;9.222;2023-09-19T11:07:05;24.10;59.90
20081;DHT22;10200;49.232;9.222;2023-09-19T11:12:12;23.90;60.40
20081;DHT22;10200;49.232;9.222;2023-09-19T11:14:40;23.80;59.70
20081;DHT22;10200;49.232;9.222;2023-09-19T11:30:42;23.70;59.70
20081;DHT22;10200;49.232;9.222;2023-09-19T11:36:13;23.50;59.40
20081;DHT22;10200;49.232;9.222;2023-09-19T11:44:31;23.60;60.30
20081;DHT22;10200;49.232;9.222;2023-09-19T11:49:18;23.60;60.30
20081;DHT22;10200;49.232;9.222;2023-09-19T11:51:46;23.60;59.30
20081;DHT22;10200;49.232;9.222;2023-09-19T11:54:16;23.60;59.00
20081;DHT22;10200;49.232;9.222;2023-09-19T11:56:45;23.60;58.70
20081;DHT22;10200;49.232;9.222;2023-09-19T11:59:11;23.60;59.60
20081;DHT22;10200;49.232;9.222;2023-09-19T12:01:51;23.70;59.00
20081;DHT22;10200;49.232;9.222;2023-09-19T12:04:35;23.80;58.90
20081;DHT22;10200;49.232;9.222;2023-09-19T12:07:16;23.80;58.30
20081;DHT22;10200;49.232;9.222;2023-09-19T12:09:43;23.90;59.90
20081;DHT22;10200;49.232;9.222;2023-09-19T12:12:37;23.90;58.40
20081;DHT22;10200;49.232;9.222;2023-09-19T12:15:03;24.00;58.60
20081;DHT22;10200;49.232;9.222;2023-09-19T12:17:39;23.90;58.70
20081;DHT22;10200;49.232;9.222;2023-09-19T12:20:06;23.90;58.30
20081;DHT22;10200;49.232;9.222;2023-09-19T12:22:41;24.00;58.90
20081;DHT22;10200;49.232;9.222;2023-09-19T12:25:08;24.00;58.50
20081;DHT22;10200;49.232;9.222;2023-09-19T12:27:44;24.00;59.10
20081;DHT22;10200;49.232;9.222;2023-09-19T12:30:12;24.10;58.40
20081;DHT22;10200;49.232;9.222;2023-09-19T12:32:43;24.10;57.90
20081;DHT22;10200;49.232;9.222;2023-09-19T12:35:10;23.90;57.50
20081;DHT22;10200;49.232;9.222;2023-09-19T12:37:45;23.80;58.50
20081;DHT22;10200;49.232;9.222;2023-09-19T12:40:14;23.80;58.40
20081;DHT22;10200;49.232;9.222;2023-09-19T12:42:44;23.80;58.60
20081;DHT22;10200;49.232;9.222;2023-09-19T12:45:11;23.80;59.20
20081;DHT22;10200;49.232;9.222;2023-09-19T12:47:39;23.80;58.50
20081;DHT22;10200;49.232;9.222;2023-09-19T12:50:12;23.90;59.20
20081;DHT22;10200;49.232;9.222;2023-09-19T12:52:51;23.90;59.00
20081;DHT22;10200;49.232;9.222;2023-09-19T12:55:25;23.90;59.10
20081;DHT22;10200;49.232;9.222;2023-09-19T12:58:13;23.80;58.80
20081;DHT22;10200;49.232;9.222;2023-09-19T13:00:42;23.80;58.80
20081;DHT22;10200;49.232;9.222;2023-09-19T13:05:59;23.80;59.60
20081;DHT22;10200;49.232;9.222;2023-09-19T13:08:39;23.80;59.00
20081;DHT22;10200;49.232;9.222;2023-09-19T13:11:15;23.80;58.70
20081;DHT22;10200;49.232;9.222;2023-09-19T13:13:47;23.80;59.60
20081;DHT22;10200;49.232;9.222;2023-09-19T13:16:20;23.80;59.00
20081;DHT22;10200;49.232;9.222;2023-09-19T13:18:51;23.70;58.70
20081;DHT22;10200;49.232;9.222;2023-09-19T13:21:31;23.60;59.40
20081;DHT22;10200;49.232;9.222;2023-09-19T13:24:24;23.60;59.50
20081;DHT22;10200;49.232;9.222;2023-09-19T13:26:55;23.70;59.10
20081;DHT22;10200;49.232;9.222;2023-09-19T13:29:21;23.60;59.50
20081;DHT22;10200;49.232;9.222;2023-09-19T13:31:50;23.60;60.00
20081;DHT22;10200;49.232;9.222;2023-09-19T13:34:18;23.70;60.20
20081;DHT22;10200;49.232;9.222;2023-09-19T13:36:45;23.90;60.30
20081;DHT22;10200;49.232;9.222;2023-09-19T13:39:11;23.90;59.30
20081;DHT22;10200;49.232;9.222;2023-09-19T13:41:38;23.90;59.40
20081;DHT22;10200;49.232;9.222;2023-09-19T13:44:04;24.00;59.30
20081;DHT22;10200;49.232;9.222;2023-09-19T13:46:31;24.10;58.90
20081;DHT22;10200;49.232;9.222;2023-09-19T13:49:03;24.10;58.40
20081;DHT22;10200;49.232;9.222;2023-09-19T13:51:30;24.00;58.30
20081;DHT22;10200;49.232;9.222;2023-09-19T13:53:56;24.00;57.90
20081;DHT22;10200;49.232;9.222;2023-09-19T13:56:22;23.90;59.00
20081;DHT22;10200;49.232;9.222;2023-09-19T13:58:47;23.90;58.40
20081;DHT22;10200;49.232;9.222;2023-09-19T14:01:13;24.00;58.80
20081;DHT22;10200;49.232;9.222;2023-09-19T14:03:39;23.90;58.40
20081;DHT22;10200;49.232;9.222;2023-09-19T14:06:05;23.90;58.90
20081;DHT22;10200;49.232;9.222;2023-09-19T14:08:31;23.90;58.70
20081;DHT22;10200;49.232;9.222;2023-09-19T14:10:58;23.90;58.10
20081;DHT22;10200;49.232;9.222;2023-09-19T14:13:24;23.90;58.30
20081;DHT22;10200;49.232;9.222;2023-09-19T14:15:51;23.90;58.10
20081;DHT22;10200;49.232;9.222;2023-09-19T14:18:16;24.00;58.30
20081;DHT22;10200;49.232;9.222;2023-09-19T14:20:43;24.00;57.80
20081;DHT22;10200;49.232;9.222;2023-09-19T14:23:09;24.00;58.00
20081;DHT22;10200;49.232;9.222;2023-09-19T14:25:35;24.10;57.80
20081;DHT22;10200;49.232;9.222;2023-09-19T14:28:01;24.10;57.50
20081;DHT22;10200;49.232;9.222;2023-09-19T14:30:27;24.10;57.70
20081;DHT22;10200;49.232;9.222;2023-09-19T14:32:53;24.00;57.70
20081;DHT22;10200;49.232;9.222;2023-09-19T14:35:19;23.90;57.60
20081;DHT22;10200;49.232;9.222;2023-09-19T14:37:44;23.80;58.40
20081;DHT22;10200;49.232;9.222;2023-09-19T14:40:11;23.80;58.60
20081;DHT22;10200;49.232;9.222;2023-09-19T14:42:39;23.90;58.90
20081;DHT22;10200;49.232;9.222;2023-09-19T14:45:06;24.00;58.40
20081;DHT22;10200;49.232;9.222;2023-09-19T14:47:32;24.10;58.70
20081;DHT22;10200;49.232;9.222;2023-09-19T14:50:03;24.10;58.50
20081;DHT22;10200;49.232;9.222;2023-09-19T14:52:32;24.00;58.20
20081;DHT22;10200;49.232;9.222;2023-09-19T14:54:59;24.10;58.20
20081;DHT22;10200;49.232;9.222;2023-09-19T14:57:25;24.00;58.20
20081;DHT22;10200;49.232;9.222;2023-09-19T14:59:51;24.00;58.30
20081;DHT22;10200;49.232;9.222;2023-09-19T15:02:17;23.90;58.30
20081;DHT22;10200;49.232;9.222;2023-09-19T15:04:42;23.90;58.50
20081;DHT22;10200;49.232;9.222;2023-09-19T15:07:10;23.90;58.60
20081;DHT22;10200;49.232;9.222;2023-09-19T15:09:35;23.80;58.90
20081;DHT22;10200;49.232;9.222;2023-09-19T15:12:01;23.90;61.20
20081;DHT22;10200;49.232;9.222;2023-09-19T15:14:27;23.80;64.80
20081;DHT22;10200;49.232;9.222;2023-09-19T15:16:55;23.70;59.50
20081;DHT22;10200;49.232;9.222;2023-09-19T15:19:20;23.70;59.80
20081;DHT22;10200;49.232;9.222;2023-09-19T15:21:47;23.70;59.30
20081;DHT22;10200;49.232;9.222;2023-09-19T15:24:13;23.60;59.50
20081;DHT22;10200;49.232;9.222;2023-09-19T15:26:39;23.60;59.60
20081;DHT22;10200;49.232;9.222;2023-09-19T15:29:06;23.60;59.90
20081;DHT22;10200;49.232;9.222;2023-09-19T15:31:32;23.50;59.90
20081;DHT22;10200;49.232;9.222;2023-09-19T15:33:58;23.50;59.90
20081;DHT22;10200;49.232;9.222;2023-09-19T15:36:24;23.40;59.70
20081;DHT22;10200;49.232;9.222;2023-09-19T15:39:08;23.50;60.00
20081;DHT22;10200;49.232;9.222;2023-09-19T15:41:38;23.50;60.70
20081;DHT22;10200;49.232;9.222;2023-09-19T15:44:04;23.50;60.20
20081;DHT22;10200;49.232;9.222;2023-09-19T15:46:31;23.50;60.00
20081;DHT22;10200;49.232;9.222;2023-09-19T15:48:58;23.50;60.10
20081;DHT22;10200;49.232;9.222;2023-09-19T15:51:26;23.50;60.10
20081;DHT22;10200;49.232;9.222;2023-09-19T15:53:53;23.40;60.10
20081;DHT22;10200;49.232;9.222;2023-09-19T15:56:20;23.40;60.20
20081;DHT22;10200;49.232;9.222;2023-09-19T15:58:50;23.40;60.60
20081;DHT22;10200;49.232;9.222;2023-09-19T16:01:17;23.40;60.60
20081;DHT22;10200;49.232;9.222;2023-09-19T16:03:50;23.30;60.30
20081;DHT22;10200;49.232;9.222;2023-09-19T16:06:30;23.30;60.60
20081;DHT22;10200;49.232;9.222;2023-09-19T16:08:58;23.20;60.90
20081;DHT22;10200;49.232;9.222;2023-09-19T16:11:25;23.20;61.10
20081;DHT22;10200;49.232;9.222;2023-09-19T16:13:51;23.10;61.20
20081;DHT22;10200;49.232;9.222;2023-09-19T16:16:19;23.10;61.90
20081;DHT22;10200;49.232;9.222;2023-09-19T16:18:49;23.00;62.10
20081;DHT22;10200;49.232;9.222;2023-09-19T16:21:16;23.00;62.50
20081;DHT22;10200;49.232;9.222;2023-09-19T16:23:50;23.00;62.10
20081;DHT22;10200;49.232;9.222;2023-09-19T16:26:16;23.00;63.00
20081;DHT22;10200;49.232;9.222;2023-09-19T16:28:44;22.90;62.70
20081;DHT22;10200;49.232;9.222;2023-09-19T16:31:10;22.90;63.50
20081;DHT22;10200;49.232;9.222;2023-09-19T16:33:37;22.80;63.40